Skip Navigation

Christman Field Latest Observations

Switch to english unitsOther observation timesWeekly graphs

Date Time
MST
Temp
°C
RH
%
DewPt
°C
Wind
m/s
Dir
°
Gust
m/s
Dir
°
Press
hPa
Solar
W/m^2
Prec
mm
2019-07-21 01:25 16.2 81.9 13.1 2.4 197 3.4 164 845.00 0.0 0.00
2019-07-21 01:20 15.9 82.9 13.0 2.0 162 3.2 175 844.89 0.0 0.00
2019-07-21 01:15 15.8 84.2 13.2 2.2 163 3.0 162 844.90 0.0 0.00
2019-07-21 01:10 15.8 83.8 13.1 2.0 163 2.5 170 844.91 0.1 0.00
2019-07-21 01:05 15.7 84.3 13.1 1.5 175 2.1 172 845.00 0.0 0.00
2019-07-21 01:00 15.7 84.6 13.1 1.8 178 2.7 177 844.98 0.0 0.00
2019-07-21 00:55 15.6 84.8 13.0 2.3 177 3.0 154 845.04 0.1 0.00
2019-07-21 00:50 15.7 85.9 13.3 1.6 138 3.4 157 845.03 0.0 0.00
2019-07-21 00:45 16.1 83.6 13.4 1.9 92 2.7 176 845.07 0.1 0.00
2019-07-21 00:40 15.6 82.7 12.7 2.1 175 2.8 188 845.03 0.1 0.00
2019-07-21 00:35 15.3 86.4 13.0 2.2 162 3.0 157 844.99 0.1 0.00
2019-07-21 00:30 15.2 86.9 13.1 1.8 192 2.1 162 844.86 0.1 0.00
2019-07-21 00:25 15.2 87.3 13.1 1.9 151 2.4 162 844.83 0.1 0.00
2019-07-21 00:20 15.2 87.2 13.1 1.5 151 2.0 143 844.93 0.1 0.00
2019-07-21 00:15 15.4 87.2 13.3 1.4 154 1.9 137 844.98 0.1 0.00
2019-07-21 00:10 15.6 85.2 13.1 1.4 128 1.9 124 844.73 0.1 0.00
2019-07-21 00:05 15.5 85.4 13.1 1.1 124 1.9 124 844.56 0.1 0.00
2019-07-21 00:00 15.3 85.7 13.0 0.0 192 0.5 274 844.50 0.1 0.00
2019-07-20 23:55 15.4 85.0 12.9 1.2 274 1.9 285 844.50 0.1 0.00
2019-07-20 23:50 15.2 85.7 12.9 1.8 281 2.2 277 844.44 0.1 0.00
2019-07-20 23:45 15.1 85.7 12.7 2.1 277 2.5 280 844.49 0.1 0.00
2019-07-20 23:40 15.3 85.6 13.0 2.3 280 2.7 292 844.60 0.1 0.00
2019-07-20 23:35 15.2 85.3 12.8 1.3 287 2.3 306 844.60 0.1 0.00
2019-07-20 23:30 15.1 87.1 12.9 1.6 254 2.5 248 844.52 0.2 0.00
2019-07-20 23:25 15.1 86.9 12.9 1.5 309 2.1 332 844.56 0.1 0.00
2019-07-20 23:20 15.2 85.1 12.7 1.6 308 2.2 302 844.60 0.2 0.00
2019-07-20 23:15 15.6 84.3 13.0 0.4 249 1.4 50 844.57 0.2 0.00
2019-07-20 23:10 15.8 84.4 13.2 2.1 42 3.5 51 844.50 0.2 0.00
2019-07-20 23:05 16.4 80.6 13.0 2.2 45 2.8 100 844.29 0.2 0.00
2019-07-20 23:00 16.0 79.2 12.4 1.4 93 2.4 88 844.01 0.1 0.00